Time;durP1;ratioP1;P1;durP2;ratioP2;P2;SDS_P1;SDS_P2;PMS_P1;PMS_P2;Temp;Humidity;BMP_temperature;BMP_pressure;BME280_temperature;BME280_humidity;BME280_pressure;Samples;Min_cycle;Max_cycle;Signal;HPM_P1;HPM_P2
2022/12/17 13:06:35;;;;;;;70.55;34.00;;;;;;;;;;5089215;28;20043;-63
2022/12/17 13:09:17;;;;;;;77.53;34.78;;;;;;;;;;5095935;28;20039;-63
2022/12/17 13:11:42;;;;;;;69.43;31.20;;;;;;;;;;5075053;28;20048;-64
2022/12/17 13:14:15;;;;;;;63.88;30.15;;;1.60;99.90;;;;;;5094205;28;20408;-60
2022/12/17 13:16:51;;;;;;;75.18;32.38;;;1.50;99.90;;;;;;5011746;28;20877;-62
2022/12/17 13:19:41;;;;;;;51.78;24.75;;;1.60;99.90;;;;;;5092019;28;20035;-59
2022/12/17 13:22:16;;;;;;;68.95;31.20;;;;;;;;;;5069153;28;20036;-59
2022/12/17 13:24:43;;;;;;;73.55;33.80;;;;;;;;;;5044482;28;20393;-61
2022/12/17 13:27:31;;;;;;;72.00;31.88;;;;;;;;;;5067997;28;20098;-62
2022/12/17 13:29:59;;;;;;;68.82;31.58;;;;;;;;;;5092931;28;20585;-60
2022/12/17 13:32:29;;;;;;;72.05;32.92;;;1.60;99.90;;;;;;5008166;28;20083;-60
2022/12/17 13:35:21;;;;;;;70.82;30.58;;;;;;;;;;5019644;28;20768;-62
2022/12/17 13:37:47;;;;;;;75.05;31.40;;;;;;;;;;5109393;28;20044;-62
2022/12/17 13:40:30;;;;;;;74.47;32.17;;;;;;;;;;5047117;28;20084;-63
2022/12/17 13:42:56;;;;;;;68.43;31.25;;;;;;;;;;5090813;28;20493;-61
2022/12/17 13:45:24;;;;;;;69.68;29.27;;;;;;;;;;5057759;28;20035;-61
2022/12/17 13:47:54;;;;;;;70.53;32.25;;;1.10;99.90;;;;;;5061593;28;20048;-61
2022/12/17 13:50:25;;;;;;;68.80;31.10;;;;;;;;;;5038119;28;20583;-60
2022/12/17 13:52:51;;;;;;;73.72;32.42;;;;;;;;;;5087233;28;20052;-60
2022/12/17 13:55:28;;;;;;;74.32;29.90;;;;;;;;;;5105416;28;20035;-60
2022/12/17 13:57:54;;;;;;;76.95;33.05;;;;;;;;;;5097903;28;20044;-60
2022/12/17 14:00:22;;;;;;;75.78;33.05;;;;;;;;;;5101889;28;20067;-61
2022/12/17 14:02:48;;;;;;;77.47;34.30;;;;;;;;;;5104954;28;20063;-60
2022/12/17 14:05:41;;;;;;;79.95;34.35;;;;;;;;;;5097674;28;20043;-62
2022/12/17 14:08:07;;;;;;;67.82;29.73;;;;;;;;;;5097030;28;20047;-61
2022/12/17 14:10:33;;;;;;;78.53;33.80;;;;;;;;;;5083374;28;20044;-61
2022/12/17 14:13:07;;;;;;;79.13;34.75;;;;;;;;;;5104656;28;20039;-61
2022/12/17 14:15:33;;;;;;;79.10;31.33;;;;;;;;;;5104284;28;20040;-60
2022/12/17 14:18:00;;;;;;;74.22;32.13;;;;;;;;;;5085115;28;20081;-61
2022/12/17 14:20:28;;;;;;;84.45;34.97;;;;;;;;;;5083211;28;20401;-61
2022/12/17 14:23:20;;;;;;;84.20;34.47;;;;;;;;;;5095345;28;20374;-61
2022/12/17 14:25:47;;;;;;;78.53;32.15;;;;;;;;;;5057696;28;20087;-60
2022/12/17 14:28:22;;;;;;;76.63;34.20;;;;;;;;;;5093476;28;20043;-61
2022/12/17 14:30:48;;;;;;;83.97;32.63;;;;;;;;;;5070539;28;20060;-62
2022/12/17 14:33:23;;;;;;;84.82;34.13;;;;;;;;;;5088929;28;20079;-60
2022/12/17 14:35:53;;;;;;;81.57;34.75;;;;;;;;;;5075356;28;20058;-61
2022/12/17 14:38:19;;;;;;;80.07;34.92;;;;;;;;;;5088392;28;20052;-58
2022/12/17 14:40:45;;;;;;;85.28;36.20;;;;;;;;;;5088439;28;20047;-59
2022/12/17 14:43:13;;;;;;;80.28;36.70;;;;;;;;;;5069135;28;20048;-61
2022/12/17 14:46:19;;;;;;;83.47;31.30;;;;;;;;;;5069956;28;20044;-57
2022/12/17 14:48:59;;;;;;;78.85;33.15;;;;;;;;;;5080707;28;20094;-61
2022/12/17 14:51:28;;;;;;;86.78;33.67;;;;;;;;;;5079234;28;20489;-62
2022/12/17 14:54:04;;;;;;;78.47;33.63;;;;;;;;;;5058764;28;20059;-56
2022/12/17 14:56:30;;;;;;;78.80;33.13;;;;;;;;;;5092195;28;20043;-55
2022/12/17 14:58:56;;;;;;;83.13;34.30;;;;;;;;;;5093972;28;20641;-57
2022/12/17 15:01:22;;;;;;;79.88;33.35;;;;;;;;;;5095139;28;20089;-60
2022/12/17 15:03:48;;;;;;;81.90;32.92;;;;;;;;;;5091108;28;20039;-59
2022/12/17 15:06:19;;;;;;;82.80;32.05;;;;;;;;;;5105999;28;20118;-57
2022/12/17 15:08:46;;;;;;;86.13;36.40;;;;;;;;;;5107343;28;20077;-57
2022/12/17 15:11:13;;;;;;;81.78;32.10;;;;;;;;;;5099902;28;20043;-60
2022/12/17 15:13:39;;;;;;;78.18;32.10;;;;;;;;;;5106877;28;20071;-57
2022/12/17 15:16:05;;;;;;;80.28;34.00;;;-0.10;99.90;;;;;;5106276;28;20043;-53
2022/12/17 15:18:31;;;;;;;73.00;31.85;;;;;;;;;;5085900;28;20404;-58
2022/12/17 15:20:58;;;;;;;73.60;31.23;;;;;;;;;;5085281;28;20044;-59
2022/12/17 15:23:24;;;;;;;84.35;33.38;;;;;;;;;;5103837;28;20161;-61
2022/12/17 15:25:52;;;;;;;86.03;34.22;;;-0.30;99.90;;;;;;5105705;28;20046;-59
2022/12/17 15:28:18;;;;;;;79.75;31.48;;;;;;;;;;5087346;28;20134;-59
2022/12/17 15:30:44;;;;;;;84.05;31.02;;;;;;;;;;5088069;28;20085;-59
2022/12/17 15:33:11;;;;;;;82.93;33.03;;;;;;;;;;5087233;28;20039;-60
2022/12/17 15:35:37;;;;;;;89.38;34.45;;;;;;;;;;5078721;28;20100;-59
2022/12/17 15:38:04;;;;;;;80.03;30.38;;;;;;;;;;5098103;28;20047;-60
2022/12/17 15:40:30;;;;;;;83.18;33.38;;;;;;;;;;5089373;28;20036;-57
2022/12/17 15:43:12;;;;;;;79.60;34.10;;;;;;;;;;5098941;28;20085;-56
2022/12/17 15:45:38;;;;;;;77.70;30.27;;;;;;;;;;5091017;28;20040;-60
2022/12/17 15:48:04;;;;;;;80.93;30.10;;;;;;;;;;5073665;28;20193;-60
2022/12/17 15:50:30;;;;;;;87.22;32.53;;;;;;;;;;5088847;28;20037;-59
2022/12/17 15:52:56;;;;;;;83.88;33.90;;;;;;;;;;5096140;28;20035;-59
2022/12/17 15:55:22;;;;;;;72.95;29.98;;;;;;;;;;5089213;28;20732;-60
2022/12/17 15:57:48;;;;;;;82.97;33.05;;;;;;;;;;5088770;28;20044;-60
2022/12/17 16:00:14;;;;;;;84.95;32.40;;;;;;;;;;5091167;28;20044;-61
2022/12/17 16:02:40;;;;;;;79.43;30.23;;;;;;;;;;5055419;28;20039;-60
2022/12/17 16:05:06;;;;;;;79.28;31.20;;;-0.90;99.90;;;;;;5105244;28;20046;-60
2022/12/17 16:07:33;;;;;;;83.00;33.08;;;;;;;;;;5084091;28;20153;-60
2022/12/17 16:09:59;;;;;;;85.53;32.28;;;;;;;;;;5086698;28;20044;-61
2022/12/17 16:12:25;;;;;;;78.20;27.70;;;;;;;;;;5092369;28;20078;-60
2022/12/17 16:14:51;;;;;;;82.65;32.20;;;;;;;;;;5084354;28;20044;-61
2022/12/17 16:17:17;;;;;;;78.40;31.15;;;;;;;;;;5075287;28;20065;-61
2022/12/17 16:19:42;;;;;;;76.18;28.90;;;;;;;;;;5079589;28;20032;-60
2022/12/17 16:22:08;;;;;;;81.53;29.65;;;;;;;;;;5086945;28;20044;-60
2022/12/17 16:24:35;;;;;;;80.25;30.65;;;;;;;;;;5087048;28;20409;-60
2022/12/17 16:27:01;;;;;;;77.55;28.33;;;;;;;;;;5086473;28;20429;-59
2022/12/17 16:29:27;;;;;;;79.00;30.70;;;;;;;;;;5086784;28;20056;-60
2022/12/17 16:31:53;;;;;;;81.47;27.58;;;;;;;;;;5087036;28;20056;-60
2022/12/17 16:34:18;;;;;;;79.75;32.10;;;;;;;;;;5086875;28;20039;-60
2022/12/17 16:36:44;;;;;;;85.70;31.40;;;;;;;;;;5092602;28;20036;-59
2022/12/17 16:39:14;;;;;;;75.70;26.25;;;;;;;;;;5096916;28;20493;-61
2022/12/17 16:41:41;;;;;;;81.30;31.27;;;-1.00;99.90;;;;;;5093004;28;20036;-57
2022/12/17 16:44:07;;;;;;;81.50;31.48;;;;;;;;;;5086118;28;20042;-57
2022/12/17 16:46:40;;;;;;;86.40;33.22;;;;;;;;;;5090848;28;20040;-56
2022/12/17 16:49:12;;;;;;;87.10;29.73;;;;;;;;;;5091174;28;20501;-59
2022/12/17 16:51:39;;;;;;;91.68;32.67;;;;;;;;;;5089569;28;20507;-55
2022/12/17 16:54:10;;;;;;;93.18;32.55;;;;;;;;;;5090564;28;20039;-58
2022/12/17 16:56:36;;;;;;;87.47;31.48;;;;;;;;;;5072102;28;20396;-58
2022/12/17 16:59:03;;;;;;;85.55;30.48;;;;;;;;;;5090495;28;20040;-57
2022/12/17 17:01:30;;;;;;;92.72;30.52;;;;;;;;;;5092292;28;20043;-58
2022/12/17 17:03:56;;;;;;;85.43;32.83;;;;;;;;;;5090964;28;20464;-57
2022/12/17 17:06:22;;;;;;;66.93;26.85;;;;;;;;;;5087350;28;20153;-57
2022/12/17 17:08:49;;;;;;;81.90;30.23;;;;;;;;;;5101722;28;20056;-57
2022/12/17 17:11:23;;;;;;;93.50;32.30;;;;;;;;;;5067329;28;20050;-58
2022/12/17 17:13:49;;;;;;;73.15;25.05;;;;;;;;;;5089796;28;20044;-58
2022/12/17 17:16:16;;;;;;;92.93;31.80;;;;;;;;;;5076187;28;20044;-58
2022/12/17 17:18:42;;;;;;;88.18;28.52;;;;;;;;;;5093396;28;20511;-60
2022/12/17 17:21:28;;;;;;;92.60;33.47;;;;;;;;;;5086593;28;20032;-58
2022/12/17 17:23:58;;;;;;;83.05;29.45;;;;;;;;;;5088192;28;20044;-60
2022/12/17 17:26:25;;;;;;;76.10;30.70;;;;;;;;;;5106907;28;20519;-60
2022/12/17 17:28:51;;;;;;;85.43;29.63;;;;;;;;;;5105514;28;20413;-60
2022/12/17 17:31:17;;;;;;;83.68;29.40;;;-1.20;99.90;;;;;;5078434;28;20056;-60
2022/12/17 17:33:45;;;;;;;94.28;31.17;;;;;;;;;;5088975;28;20039;-58
2022/12/17 17:36:22;;;;;;;84.70;31.13;;;;;;;;;;5093617;28;20039;-61
2022/12/17 17:38:48;;;;;;;82.10;28.65;;;;;;;;;;5086241;28;20062;-58
2022/12/17 17:41:16;;;;;;;92.40;31.92;;;;;;;;;;5105673;28;20047;-58
2022/12/17 17:43:42;;;;;;;91.72;31.92;;;;;;;;;;5092046;28;20048;-61
2022/12/17 17:46:10;;;;;;;88.55;31.08;;;;;;;;;;5076020;28;20050;-60
2022/12/17 17:48:36;;;;;;;90.03;31.60;;;;;;;;;;5105214;28;20047;-58
2022/12/17 17:51:04;;;;;;;83.63;30.05;;;;;;;;;;5105810;28;20070;-60
2022/12/17 17:53:30;;;;;;;83.20;28.92;;;;;;;;;;5085621;28;20180;-58
2022/12/17 17:56:01;;;;;;;86.82;28.85;;;;;;;;;;5090541;28;20039;-60
2022/12/17 17:58:27;;;;;;;89.47;30.40;;;;;;;;;;5105009;28;20051;-60
2022/12/17 18:00:53;;;;;;;84.18;28.60;;;;;;;;;;5100106;28;20401;-60
2022/12/17 18:03:19;;;;;;;88.40;28.77;;;;;;;;;;5085427;28;20048;-58
2022/12/17 18:05:45;;;;;;;94.90;33.65;;;;;;;;;;5070159;28;20083;-58
2022/12/17 18:08:11;;;;;;;89.85;31.05;;;;;;;;;;5095804;28;20036;-60
2022/12/17 18:10:37;;;;;;;97.85;31.85;;;;;;;;;;5092922;28;20461;-60
2022/12/17 18:15:47;;;;;;;83.32;29.95;;;;;;;;;;5090825;28;20081;-59
2022/12/17 18:18:13;;;;;;;92.03;30.27;;;;;;;;;;5071798;28;20123;-59
2022/12/17 18:20:39;;;;;;;90.75;32.28;;;;;;;;;;5081481;28;20468;-60
2022/12/17 18:23:05;;;;;;;87.53;30.83;;;;;;;;;;5077334;28;20043;-60
2022/12/17 18:25:33;;;;;;;87.93;29.60;;;;;;;;;;5088416;28;20481;-60
2022/12/17 18:27:59;;;;;;;82.55;31.02;;;;;;;;;;5081091;28;20040;-56
2022/12/17 18:30:25;;;;;;;86.05;29.55;;;;;;;;;;5042148;28;1037653;-58
2022/12/17 18:32:51;;;;;;;83.15;28.50;;;;;;;;;;5069474;28;20055;-60
2022/12/17 18:35:17;;;;;;;92.03;29.95;;;;;;;;;;5084119;28;20036;-60
2022/12/17 18:37:43;;;;;;;80.43;29.17;;;;;;;;;;5074007;28;20061;-60
2022/12/17 18:40:09;;;;;;;92.65;30.45;;;;;;;;;;5075027;28;20054;-60
2022/12/17 18:45:20;;;;;;;83.20;29.85;;;;;;;;;;5069649;28;20123;-58
2022/12/17 18:47:46;;;;;;;96.22;31.88;;;;;;;;;;5051918;28;20048;-60
2022/12/17 18:50:12;;;;;;;84.05;30.77;;;;;;;;;;5084390;28;20353;-58
2022/12/17 18:52:38;;;;;;;83.63;27.95;;;;;;;;;;5088557;28;20050;-60
2022/12/17 18:55:04;;;;;;;84.05;29.48;;;;;;;;;;5090349;28;20043;-60
2022/12/17 18:57:30;;;;;;;90.43;30.40;;;;;;;;;;5105781;28;20048;-60
2022/12/17 18:59:56;;;;;;;101.10;30.02;;;;;;;;;;5090500;28;20124;-60
2022/12/17 19:02:22;;;;;;;96.03;33.53;;;;;;;;;;5080303;28;20136;-59
2022/12/17 19:04:48;;;;;;;91.45;28.17;;;;;;;;;;5085722;28;20561;-61
2022/12/17 19:07:14;;;;;;;89.95;30.27;;;;;;;;;;5071425;28;20410;-60
2022/12/17 19:09:41;;;;;;;92.93;31.13;;;;;;;;;;5077377;28;20052;-58
2022/12/17 19:12:07;;;;;;;90.90;30.88;;;;;;;;;;5095471;28;20507;-61
2022/12/17 19:14:33;;;;;;;86.93;30.48;;;;;;;;;;5064184;28;20040;-61
2022/12/17 19:16:59;;;;;;;79.43;27.52;;;;;;;;;;5075885;28;20054;-61
2022/12/17 19:19:26;;;;;;;89.60;30.25;;;;;;;;;;5078868;28;20039;-60
2022/12/17 19:21:53;;;;;;;89.38;30.75;;;;;;;;;;5096213;28;20498;-59
2022/12/17 19:24:20;;;;;;;87.55;30.17;;;;;;;;;;5099255;28;20036;-59
2022/12/17 19:26:46;;;;;;;104.40;34.17;;;;;;;;;;5084862;28;20050;-60
2022/12/17 19:29:13;;;;;;;86.25;31.63;;;;;;;;;;5094763;28;20057;-58
2022/12/17 19:31:39;;;;;;;86.20;29.92;;;;;;;;;;5078615;28;20482;-62
2022/12/17 19:34:06;;;;;;;94.28;32.97;;;;;;;;;;5093356;28;20044;-59
2022/12/17 19:36:33;;;;;;;90.97;30.40;;;;;;;;;;5098674;28;20497;-61
2022/12/17 19:39:01;;;;;;;87.28;33.65;;;;;;;;;;5085796;28;20082;-59
2022/12/17 19:41:27;;;;;;;80.60;29.33;;;;;;;;;;5085491;28;20036;-60
2022/12/17 19:43:54;;;;;;;79.85;28.77;;;;;;;;;;5084489;28;20044;-60
2022/12/17 19:46:21;;;;;;;80.18;28.67;;;;;;;;;;5084198;28;20121;-61
2022/12/17 19:48:48;;;;;;;83.75;30.00;;;;;;;;;;5084272;28;20056;-60
2022/12/17 19:51:14;;;;;;;78.25;30.77;;;;;;;;;;5084326;28;20097;-62
2022/12/17 19:53:41;;;;;;;87.53;31.33;;;;;;;;;;5066203;28;20128;-60
2022/12/17 19:56:13;;;;;;;73.97;28.63;;;;;;;;;;5084003;28;20135;-60
2022/12/17 19:58:40;;;;;;;82.32;30.92;;;;;;;;;;5083864;28;20537;-60
2022/12/17 20:01:16;;;;;;;86.53;31.77;;;;;;;;;;5080651;28;20043;-60
2022/12/17 20:03:43;;;;;;;86.00;34.72;;;;;;;;;;5098671;28;20040;-61
2022/12/17 20:06:10;;;;;;;86.40;31.45;;;;;;;;;;5081966;28;20401;-61
2022/12/17 20:08:37;;;;;;;95.47;34.22;;;;;;;;;;5096928;28;20075;-61
2022/12/17 20:11:31;;;;;;;83.82;31.30;;;;;;;;;;5083922;28;20622;-60
2022/12/17 20:13:54;;;;;;;71.97;27.42;;;;;;;;;;5083846;28;20047;-58
2022/12/17 20:16:20;;;;;;;89.75;33.70;;;;;;;;;;5064852;28;20047;-60
2022/12/17 20:18:46;;;;;;;96.40;32.97;;;;;;;;;;5081121;28;20059;-61
2022/12/17 20:21:12;;;;;;;82.85;31.08;;;;;;;;;;5083886;28;20067;-61
2022/12/17 20:23:38;;;;;;;89.55;30.73;;;;;;;;;;5069125;28;20130;-62
2022/12/17 20:26:04;;;;;;;92.03;33.33;;;;;;;;;;5088014;28;20036;-60
2022/12/17 20:28:30;;;;;;;88.32;30.70;;;;;;;;;;5077843;28;20055;-61
2022/12/17 20:30:56;;;;;;;91.53;33.33;;;;;;;;;;5075430;28;20048;-60
2022/12/17 20:33:22;;;;;;;86.57;31.85;;;;;;;;;;5071992;28;20055;-60
2022/12/17 20:35:48;;;;;;;82.72;30.15;;;;;;;;;;5059098;28;20054;-59
2022/12/17 20:38:14;;;;;;;81.15;30.05;;;;;;;;;;5081285;28;20036;-60
2022/12/17 20:40:41;;;;;;;89.15;30.20;;;;;;;;;;5090078;28;20040;-60
2022/12/17 20:43:07;;;;;;;83.13;32.38;;;;;;;;;;5083606;28;20044;-61
2022/12/17 20:45:33;;;;;;;94.57;34.00;;;;;;;;;;5066184;28;20044;-61
2022/12/17 20:47:59;;;;;;;90.78;31.42;;;;;;;;;;5084595;28;20051;-63
2022/12/17 20:50:26;;;;;;;95.32;33.72;;;;;;;;;;5083792;28;20059;-61
2022/12/17 20:52:52;;;;;;;88.20;29.60;;;;;;;;;;5065862;28;20137;-60
2022/12/17 20:55:18;;;;;;;95.82;33.25;;;;;;;;;;5079986;28;20036;-58
2022/12/17 20:57:44;;;;;;;99.70;34.67;;;;;;;;;;5086413;28;20044;-60
2022/12/17 21:00:10;;;;;;;87.07;31.40;;;;;;;;;;5083748;28;20101;-60
2022/12/17 21:02:37;;;;;;;84.28;33.05;;;;;;;;;;5083528;28;20036;-60
2022/12/17 21:05:03;;;;;;;65.45;24.55;;;;;;;;;;5086341;28;20038;-60
2022/12/17 21:07:29;;;;;;;83.85;31.48;;;;;;;;;;5080671;28;20044;-59
2022/12/17 21:09:55;;;;;;;95.60;34.05;;;;;;;;;;5084043;28;20567;-60
2022/12/17 21:12:21;;;;;;;95.93;33.75;;;;;;;;;;5079341;28;20383;-57
2022/12/17 21:14:47;;;;;;;81.78;32.45;;;;;;;;;;5083563;28;20031;-60
2022/12/17 21:17:13;;;;;;;92.25;34.78;;;;;;;;;;5096614;28;20071;-58
2022/12/17 21:19:39;;;;;;;98.65;34.00;;;;;;;;;;5075930;28;20075;-60
2022/12/17 21:22:06;;;;;;;92.15;33.83;;;;;;;;;;5085343;28;20126;-60
2022/12/17 21:24:32;;;;;;;88.78;30.27;;;;;;;;;;5101691;28;20040;-60
2022/12/17 21:26:58;;;;;;;98.55;33.65;;;;;;;;;;5087422;28;20486;-60
2022/12/17 21:29:24;;;;;;;96.45;33.10;;;;;;;;;;5078757;28;20047;-60
2022/12/17 21:31:51;;;;;;;89.25;32.67;;;;;;;;;;5069141;28;20052;-60
2022/12/17 21:34:20;;;;;;;107.53;36.85;;;;;;;;;;5087684;28;20048;-61
2022/12/17 21:36:46;;;;;;;85.80;30.95;;;;;;;;;;5101845;28;20043;-61
2022/12/17 21:39:13;;;;;;;91.63;32.45;;;;;;;;;;5087623;28;20143;-59
2022/12/17 21:41:40;;;;;;;99.47;32.78;;;;;;;;;;5083958;28;20040;-60
2022/12/17 21:44:07;;;;;;;109.45;37.65;;;;;;;;;;5069301;28;20050;-60
2022/12/17 21:46:33;;;;;;;96.00;35.05;;;;;;;;;;5087332;28;20040;-60
2022/12/17 21:49:00;;;;;;;104.93;37.50;;;;;;;;;;5087564;28;20054;-59
2022/12/17 21:51:27;;;;;;;101.18;34.72;;;;;;;;;;5072106;28;20090;-59
2022/12/17 21:53:54;;;;;;;108.60;35.38;;;;;;;;;;5100769;28;20502;-59
2022/12/17 21:56:20;;;;;;;106.35;35.95;;;;;;;;;;5080468;28;20036;-62
2022/12/17 21:58:46;;;;;;;104.85;35.55;;;;;;;;;;5086891;28;20036;-59
2022/12/17 22:01:12;;;;;;;96.25;34.67;;;;;;;;;;5088082;28;20504;-57
2022/12/17 22:03:38;;;;;;;80.18;30.17;;;;;;;;;;5089495;28;20036;-59
2022/12/17 22:06:05;;;;;;;93.68;33.08;;;;;;;;;;5089074;28;20051;-59
2022/12/17 22:08:31;;;;;;;98.13;34.35;;;;;;;;;;5082543;28;20077;-58
2022/12/17 22:10:57;;;;;;;100.88;33.00;;;;;;;;;;5092063;28;20046;-58
2022/12/17 22:16:08;;;;;;;99.63;32.33;;;;;;;;;;5092718;28;20039;-59
2022/12/17 22:18:34;;;;;;;107.55;36.03;;;;;;;;;;5099422;28;20129;-58
2022/12/17 22:21:00;;;;;;;95.78;33.05;;;;;;;;;;5103548;28;20043;-57
2022/12/17 22:23:26;;;;;;;95.05;30.70;;;;;;;;;;5089103;28;20040;-60
2022/12/17 22:25:52;;;;;;;113.20;37.15;;;;;;;;;;5089041;28;20036;-58
2022/12/17 22:28:18;;;;;;;98.70;32.20;;;;;;;;;;5056507;28;20039;-57
2022/12/17 22:33:29;;;;;;;100.35;33.42;;;;;;;;;;5073917;28;20486;-58
2022/12/17 22:35:59;;;;;;;100.78;35.53;;;;;;;;;;5088742;28;20052;-55
2022/12/17 22:38:25;;;;;;;99.07;33.80;;;;;;;;;;5088474;28;20056;-59
2022/12/17 22:40:51;;;;;;;114.20;36.10;;;;;;;;;;5088784;28;20044;-60
2022/12/17 22:43:29;;;;;;;87.07;29.35;;;;;;;;;;5088392;28;20036;-59
2022/12/17 22:46:03;;;;;;;79.47;26.05;;;;;;;;;;5088412;28;20044;-57
2022/12/17 22:48:29;;;;;;;107.78;37.80;;;;;;;;;;5102817;28;20051;-60
2022/12/17 22:50:56;;;;;;;110.80;35.75;;;;;;;;;;5088541;28;20048;-60
2022/12/17 22:53:22;;;;;;;103.75;32.30;;;;;;;;;;5088301;28;20398;-60
2022/12/17 22:55:48;;;;;;;88.00;29.15;;;;;;;;;;5088291;28;20595;-60
2022/12/17 22:58:14;;;;;;;100.90;34.85;;;;;;;;;;5087952;28;20316;-60
2022/12/17 23:00:40;;;;;;;108.95;34.30;;;;;;;;;;5094595;28;20556;-60
2022/12/17 23:03:06;;;;;;;114.80;33.28;;;;;;;;;;5095820;28;20047;-60
2022/12/17 23:05:32;;;;;;;97.75;31.48;;;;;;;;;;5102394;28;20040;-59
2022/12/17 23:07:58;;;;;;;101.82;33.80;;;;;;;;;;5075940;28;20413;-60
2022/12/17 23:10:25;;;;;;;117.40;33.80;;;;;;;;;;5080986;28;20043;-61
2022/12/17 23:12:52;;;;;;;109.03;33.60;;;;;;;;;;5089555;28;20553;-60
2022/12/17 23:15:20;;;;;;;114.25;36.15;;;;;;;;;;5088055;28;20044;-60
2022/12/17 23:17:46;;;;;;;104.28;34.97;;;;;;;;;;5069466;28;20127;-59
2022/12/17 23:20:13;;;;;;;107.45;35.42;;;;;;;;;;5087796;28;20040;-60
2022/12/17 23:22:39;;;;;;;105.05;33.60;;;;;;;;;;5077263;28;20047;-59
2022/12/17 23:25:05;;;;;;;96.78;31.88;;;;;;;;;;5098462;28;20031;-60
2022/12/17 23:27:31;;;;;;;94.28;30.58;;;;;;;;;;5094081;28;20516;-60
2022/12/17 23:29:58;;;;;;;94.95;31.60;;;;;;;;;;5087089;28;20051;-59
2022/12/17 23:32:24;;;;;;;110.22;34.22;;;;;;;;;;5081689;28;20557;-58
2022/12/17 23:34:50;;;;;;;92.47;31.50;;;;;;;;;;5091051;28;20115;-60
2022/12/17 23:37:16;;;;;;;100.75;30.83;;;;;;;;;;5097861;28;20042;-59
2022/12/17 23:39:42;;;;;;;98.72;33.60;;;;;;;;;;5099293;28;20046;-60
2022/12/17 23:42:08;;;;;;;96.55;30.88;;;;;;;;;;5080978;28;20089;-60
2022/12/17 23:44:34;;;;;;;96.57;30.63;;;;;;;;;;5080438;28;20040;-60
2022/12/17 23:47:00;;;;;;;93.05;30.60;;;;;;;;;;5087009;28;20044;-60
2022/12/17 23:49:26;;;;;;;97.68;32.60;;;;;;;;;;5087246;28;20062;-60
2022/12/17 23:51:52;;;;;;;111.00;31.70;;;;;;;;;;5087083;28;20611;-60
2022/12/17 23:54:18;;;;;;;113.35;33.35;;;;;;;;;;5087277;28;20036;-59
2022/12/17 23:56:44;;;;;;;106.55;34.00;;;;;;;;;;5068971;28;20396;-59
2022/12/17 23:59:10;;;;;;;100.47;30.27;;;;;;;;;;5074905;28;20127;-60
